Terminal Aerodrome Forecast
Issued by NWS Jacksonville, FL

Home | Current Version | Previous Version | Text Only | Print | Product List | Glossary On
Versions: 1 2 3 4 5 6 7 8 9 10 11 12 13
307
FTUS42 KJAX 212356
TAFJAX
TAF
KJAX 212356Z 2200/2224 07006KT P6SM FEW040
     FM220800 06003KT 3SM BR SCT007 SCT250
     FM221000 03003KT 1/2SM FG SCT002 BKN004
     FM221330 09003KT 3SM BR SCT005 BKN009
     FM221430 12006KT P6SM BKN015
     FM221800 15010KT P6SM SCT025 SCT250=

USA.gov is the U.S. government's official web portal to all federal, state and local government web resources and services.